Time;durP1;ratioP1;P1;durP2;ratioP2;P2;SDS_P1;SDS_P2;PMS_P1;PMS_P2;Temp;Humidity;BMP_temperature;BMP_pressure;BME280_temperature;BME280_humidity;BME280_pressure;Samples;Min_cycle;Max_cycle;Signal;HPM_P1;HPM_P2
2022/07/03 00:01:23;;;;;;;4.90;2.00;;;17.70;60.20;;;;;;5001353;28;20121;-71
2022/07/03 00:03:49;;;;;;;5.18;2.20;;;17.70;60.60;;;;;;5008765;28;20474;-71
2022/07/03 00:06:15;;;;;;;4.45;2.17;;;17.60;60.80;;;;;;5010933;28;20092;-71
2022/07/03 00:08:40;;;;;;;4.78;2.20;;;17.60;61.00;;;;;;5008968;28;20430;-72
2022/07/03 00:11:06;;;;;;;4.10;2.25;;;17.60;61.10;;;;;;5001529;28;20038;-72
2022/07/03 00:13:32;;;;;;;6.95;2.50;;;17.60;61.40;;;;;;5010916;28;20120;-72
2022/07/03 00:15:58;;;;;;;6.57;2.33;;;17.60;61.50;;;;;;5004924;28;20406;-73
2022/07/03 00:18:24;;;;;;;4.85;2.58;;;17.60;61.60;;;;;;4994742;28;20030;-72
2022/07/03 00:21:04;;;;;;;5.82;2.53;;;17.60;61.50;;;;;;5004113;28;20038;-71
2022/07/03 00:23:37;;;;;;;4.88;2.53;;;17.60;61.60;;;;;;5010642;28;20022;-71
2022/07/03 00:26:05;;;;;;;6.90;2.85;;;17.60;61.90;;;;;;5005256;28;20050;-72
2022/07/03 00:28:31;;;;;;;6.60;3.45;;;17.60;62.00;;;;;;5010293;28;20037;-72
2022/07/03 00:30:58;;;;;;;5.75;2.97;;;17.60;62.20;;;;;;5005440;28;20035;-72
2022/07/03 00:33:27;;;;;;;6.07;3.67;;;17.60;62.30;;;;;;5008235;28;20048;-72
2022/07/03 00:35:54;;;;;;;5.25;3.50;;;17.50;62.30;;;;;;4998293;28;20046;-73
2022/07/03 00:38:21;;;;;;;7.97;4.18;;;17.50;62.50;;;;;;5015870;28;20447;-71
2022/07/03 00:40:47;;;;;;;6.97;3.28;;;17.50;62.50;;;;;;5008574;28;20117;-72
2022/07/03 00:43:16;;;;;;;4.30;2.80;;;17.40;62.60;;;;;;5007986;28;20129;-72
2022/07/03 00:45:46;;;;;;;5.55;2.90;;;17.40;62.40;;;;;;5009825;28;20137;-72
2022/07/03 00:48:15;;;;;;;5.30;3.13;;;17.40;62.60;;;;;;4993453;28;20129;-71
2022/07/03 00:50:46;;;;;;;6.82;2.80;;;17.30;62.30;;;;;;5004309;28;20025;-72
2022/07/03 00:53:13;;;;;;;4.63;2.58;;;17.30;62.70;;;;;;5010793;28;20067;-72
2022/07/03 00:55:43;;;;;;;5.57;2.22;;;17.30;62.90;;;;;;5003001;28;20026;-72
2022/07/03 00:58:09;;;;;;;5.70;2.65;;;17.30;62.70;;;;;;5006615;28;20111;-72
2022/07/03 01:00:40;;;;;;;5.57;2.45;;;17.20;62.90;;;;;;5011344;28;20087;-72
2022/07/03 01:03:10;;;;;;;4.35;2.40;;;17.10;63.20;;;;;;4998609;28;20030;-71
2022/07/03 01:05:45;;;;;;;4.72;2.00;;;17.10;63.10;;;;;;5001725;28;20500;-72
2022/07/03 01:08:16;;;;;;;4.72;2.10;;;17.10;63.70;;;;;;5010179;28;20038;-72
2022/07/03 01:11:03;;;;;;;4.72;1.98;;;17.00;63.70;;;;;;4993406;28;20470;-72
2022/07/03 01:13:50;;;;;;;3.33;1.77;;;17.00;64.20;;;;;;4992582;28;20096;-71
2022/07/03 01:16:41;;;;;;;4.28;1.90;;;17.00;64.30;;;;;;5006145;28;20481;-71
2022/07/03 01:19:43;;;;;;;6.10;2.13;;;16.90;64.50;;;;;;5009048;28;20372;-72
2022/07/03 01:22:09;;;;;;;4.35;2.00;;;16.80;65.00;;;;;;5004906;28;20087;-72
2022/07/03 01:24:38;;;;;;;4.50;2.53;;;16.80;65.20;;;;;;5003584;28;20753;-72
2022/07/03 01:27:14;;;;;;;5.25;2.70;;;16.80;65.40;;;;;;4992127;28;20115;-72
2022/07/03 01:29:56;;;;;;;4.78;2.08;;;16.80;65.40;;;;;;4991359;28;20039;-72
2022/07/03 01:32:27;;;;;;;4.28;2.28;;;16.70;65.70;;;;;;5004544;28;20468;-71
2022/07/03 01:34:54;;;;;;;6.40;2.40;;;16.80;65.80;;;;;;5008752;28;20398;-72
2022/07/03 01:37:22;;;;;;;4.60;2.53;;;16.80;65.90;;;;;;4999464;28;20486;-72
2022/07/03 01:39:52;;;;;;;4.10;2.00;;;16.80;65.90;;;;;;4995373;28;20036;-72
2022/07/03 01:42:19;;;;;;;4.40;2.05;;;16.80;66.00;;;;;;5006322;28;20425;-71
2022/07/03 01:44:48;;;;;;;5.35;2.42;;;16.80;66.10;;;;;;4992872;28;20466;-72
2022/07/03 01:47:15;;;;;;;4.68;2.30;;;16.80;66.10;;;;;;5002587;28;20038;-72
2022/07/03 01:49:41;;;;;;;5.47;2.38;;;16.80;66.20;;;;;;5008408;28;20040;-72
2022/07/03 01:52:10;;;;;;;5.60;2.22;;;16.80;66.10;;;;;;5003000;28;20207;-72
2022/07/03 01:54:38;;;;;;;4.57;2.13;;;16.80;66.00;;;;;;5011422;28;20030;-71
2022/07/03 01:57:06;;;;;;;4.93;2.42;;;16.90;66.20;;;;;;5005409;28;20034;-72
2022/07/03 01:59:31;;;;;;;5.88;2.47;;;16.90;66.10;;;;;;5007611;28;20046;-72
2022/07/03 02:02:22;;;;;;;6.00;2.63;;;16.90;66.30;;;;;;4998491;28;20508;-72
2022/07/03 02:05:02;;;;;;;5.53;2.20;;;16.90;66.20;;;;;;5010493;28;20037;-72
2022/07/03 02:07:50;;;;;;;4.75;2.42;;;16.80;66.10;;;;;;5007990;28;20052;-72
2022/07/03 02:10:17;;;;;;;5.75;2.28;;;16.80;66.20;;;;;;5008104;28;20042;-72
2022/07/03 02:12:49;;;;;;;4.40;2.25;;;16.80;66.50;;;;;;5006360;28;20034;-71
2022/07/03 02:15:36;;;;;;;5.80;2.60;;;16.80;66.80;;;;;;5010488;28;20523;-71
2022/07/03 02:18:28;;;;;;;5.97;2.70;;;16.80;66.70;;;;;;5001976;28;20125;-72
2022/07/03 02:21:14;;;;;;;5.55;2.65;;;16.70;66.90;;;;;;5007387;28;20034;-72
2022/07/03 02:24:03;;;;;;;5.45;2.78;;;16.70;67.40;;;;;;5010995;28;20121;-71
2022/07/03 02:26:37;;;;;;;8.93;3.17;;;16.70;67.50;;;;;;5004050;28;20050;-71
2022/07/03 02:29:05;;;;;;;4.97;2.60;;;16.60;67.80;;;;;;5004819;28;20135;-72
2022/07/03 02:31:39;;;;;;;5.90;2.72;;;16.50;68.30;;;;;;5002750;28;20057;-71
2022/07/03 02:34:06;;;;;;;5.90;3.05;;;16.50;68.50;;;;;;5009599;28;20038;-71
2022/07/03 02:36:33;;;;;;;6.57;3.10;;;16.50;68.80;;;;;;4998595;28;20035;-71
2022/07/03 02:38:59;;;;;;;6.82;3.28;;;16.50;69.20;;;;;;5008236;28;20457;-72
2022/07/03 02:41:39;;;;;;;8.88;3.80;;;16.40;69.40;;;;;;5007610;28;20045;-71
2022/07/03 02:44:16;;;;;;;6.88;3.45;;;16.40;69.80;;;;;;4991586;28;20088;-72
2022/07/03 02:47:03;;;;;;;6.43;3.50;;;16.30;70.10;;;;;;5003194;28;20042;-71
2022/07/03 02:50:08;;;;;;;6.70;3.42;;;16.30;70.50;;;;;;4998230;28;20050;-71
2022/07/03 02:52:34;;;;;;;8.07;3.30;;;16.30;70.60;;;;;;4991180;28;20030;-71
2022/07/03 02:55:10;;;;;;;8.15;3.97;;;16.20;70.90;;;;;;4994981;28;20038;-71
2022/07/03 02:57:40;;;;;;;8.15;3.85;;;16.20;70.90;;;;;;4991149;28;20060;-71
2022/07/03 03:00:11;;;;;;;6.97;3.67;;;16.30;71.10;;;;;;5007203;28;20096;-71
2022/07/03 03:02:56;;;;;;;9.95;3.85;;;16.20;71.20;;;;;;4997550;28;20133;-72
2022/07/03 03:05:27;;;;;;;7.18;3.65;;;16.10;71.50;;;;;;4996894;28;20116;-71
2022/07/03 03:08:13;;;;;;;7.53;3.80;;;16.10;71.60;;;;;;5004884;28;20044;-72
2022/07/03 03:10:40;;;;;;;7.70;3.50;;;16.10;71.80;;;;;;5014376;28;20594;-72
2022/07/03 03:13:12;;;;;;;7.88;4.60;;;16.10;71.80;;;;;;5000989;28;20046;-71
2022/07/03 03:15:39;;;;;;;7.60;3.95;;;16.10;72.20;;;;;;4999225;28;20053;-72
2022/07/03 03:18:07;;;;;;;8.70;4.90;;;16.10;72.40;;;;;;5004418;28;20038;-72
2022/07/03 03:20:38;;;;;;;9.52;4.60;;;16.00;72.60;;;;;;4997939;28;20117;-72
2022/07/03 03:23:44;;;;;;;10.43;5.35;;;15.90;72.80;;;;;;5005466;28;20041;-73
2022/07/03 03:26:12;;;;;;;8.23;4.93;;;15.80;73.30;;;;;;5018070;28;20042;-72
2022/07/03 03:28:40;;;;;;;11.68;5.60;;;15.90;73.50;;;;;;5005381;28;20061;-72
2022/07/03 03:31:07;;;;;;;10.07;6.28;;;15.80;73.60;;;;;;4994500;28;20038;-72
2022/07/03 03:33:43;;;;;;;9.45;5.88;;;15.80;74.00;;;;;;4997067;28;20466;-72
2022/07/03 03:36:12;;;;;;;10.50;6.10;;;15.80;74.30;;;;;;5010840;28;20042;-72
2022/07/03 03:38:38;;;;;;;12.82;6.93;;;15.70;74.60;;;;;;5014398;28;20053;-72
2022/07/03 03:41:05;;;;;;;11.52;6.80;;;15.70;75.10;;;;;;5008099;28;20096;-72
2022/07/03 03:43:31;;;;;;;11.70;6.35;;;15.70;75.40;;;;;;5011558;28;20030;-72
2022/07/03 03:45:57;;;;;;;10.48;7.10;;;15.60;75.60;;;;;;5006364;28;20115;-72
2022/07/03 03:48:23;;;;;;;11.65;7.22;;;15.60;76.10;;;;;;5012655;28;20030;-72
2022/07/03 03:50:49;;;;;;;10.93;7.15;;;15.50;76.40;;;;;;5012308;28;20038;-71
2022/07/03 03:53:16;;;;;;;9.93;7.13;;;15.60;76.60;;;;;;5000801;28;20044;-72
2022/07/03 03:55:59;;;;;;;11.30;6.72;;;15.50;76.70;;;;;;5013689;28;20044;-72
2022/07/03 03:58:24;;;;;;;9.85;6.22;;;15.60;76.70;;;;;;5007150;28;20037;-72
2022/07/03 04:00:52;;;;;;;10.80;6.38;;;15.60;76.70;;;;;;5003579;28;20034;-72
2022/07/03 04:03:18;;;;;;;10.65;7.05;;;15.60;76.80;;;;;;4993620;28;20069;-71
2022/07/03 04:05:44;;;;;;;10.23;6.80;;;15.70;76.90;;;;;;5005660;28;20058;-72
2022/07/03 04:08:10;;;;;;;10.13;5.88;;;15.70;77.30;;;;;;5005224;28;20093;-72
2022/07/03 04:10:36;;;;;;;12.75;6.68;;;15.70;77.20;;;;;;5010861;28;20084;-72
2022/07/03 04:13:01;;;;;;;11.18;7.15;;;15.90;77.10;;;;;;5012439;28;20038;-72
2022/07/03 04:15:27;;;;;;;13.60;6.47;;;15.90;77.00;;;;;;5004829;28;20128;-71
2022/07/03 04:17:53;;;;;;;10.98;6.82;;;16.00;76.60;;;;;;4992307;28;20046;-71
2022/07/03 04:20:18;;;;;;;12.20;6.30;;;16.10;76.60;;;;;;5006324;28;20052;-72
2022/07/03 04:22:44;;;;;;;9.68;5.82;;;16.10;76.70;;;;;;4995858;28;20551;-72
2022/07/03 04:25:09;;;;;;;10.43;6.90;;;16.10;76.50;;;;;;5012688;28;20037;-72
2022/07/03 04:27:35;;;;;;;10.23;5.88;;;16.10;76.00;;;;;;5004834;28;20489;-72
2022/07/03 04:30:01;;;;;;;10.13;5.72;;;16.10;76.20;;;;;;5007944;28;20069;-73
2022/07/03 04:32:26;;;;;;;9.88;6.28;;;16.20;76.20;;;;;;4995094;28;20041;-71
2022/07/03 04:34:52;;;;;;;10.73;6.55;;;16.10;76.10;;;;;;5010203;28;20425;-75
2022/07/03 04:37:18;;;;;;;10.57;6.22;;;16.20;75.80;;;;;;5012027;28;20029;-74
2022/07/03 04:39:43;;;;;;;10.02;6.00;;;16.20;75.90;;;;;;5011126;28;20581;-74
2022/07/03 04:42:09;;;;;;;12.25;6.25;;;16.20;75.90;;;;;;5004919;28;20030;-74
2022/07/03 04:44:35;;;;;;;10.73;5.80;;;16.30;75.50;;;;;;5005587;28;20044;-75
2022/07/03 04:47:00;;;;;;;9.63;5.90;;;16.30;75.60;;;;;;5000542;28;20048;-75
2022/07/03 04:49:26;;;;;;;10.95;6.05;;;16.40;75.50;;;;;;5007214;28;20038;-74
2022/07/03 04:51:53;;;;;;;9.90;5.70;;;16.40;75.40;;;;;;5011344;28;20052;-74
2022/07/03 04:54:18;;;;;;;11.63;6.50;;;16.40;75.40;;;;;;5007541;28;20026;-75
2022/07/03 04:56:44;;;;;;;9.50;5.97;;;16.50;75.50;;;;;;5003429;28;20036;-74
2022/07/03 04:59:10;;;;;;;9.23;6.28;;;16.50;75.40;;;;;;5001847;28;20034;-75
2022/07/03 05:01:36;;;;;;;9.98;5.97;;;16.60;75.40;;;;;;4997781;28;20027;-75
2022/07/03 05:04:01;;;;;;;10.23;6.50;;;16.60;75.30;;;;;;4998474;28;20093;-75
2022/07/03 05:06:27;;;;;;;10.82;6.75;;;16.70;75.10;;;;;;5010447;28;20052;-74
2022/07/03 05:08:53;;;;;;;10.82;6.25;;;16.80;75.30;;;;;;4998206;28;20117;-74
2022/07/03 05:11:18;;;;;;;12.15;7.13;;;16.80;74.80;;;;;;4997481;28;20092;-75
2022/07/03 05:13:44;;;;;;;12.00;7.30;;;16.90;74.70;;;;;;5000454;28;20117;-75
2022/07/03 05:16:09;;;;;;;10.23;6.75;;;17.10;74.10;;;;;;5002787;28;20160;-75
2022/07/03 05:18:35;;;;;;;10.93;6.78;;;18.00;72.20;;;;;;4993506;28;20034;-75
2022/07/03 05:21:01;;;;;;;10.25;6.40;;;18.40;70.40;;;;;;5010138;28;20037;-75
2022/07/03 05:23:27;;;;;;;12.40;5.72;;;18.60;70.20;;;;;;5012690;28;20030;-75
2022/07/03 05:25:55;;;;;;;10.98;6.60;;;19.00;68.80;;;;;;4998309;28;20054;-76
2022/07/03 05:28:20;;;;;;;10.25;5.60;;;19.70;66.20;;;;;;5011837;28;20055;-75
2022/07/03 05:30:46;;;;;;;10.90;5.80;;;19.90;65.30;;;;;;5010294;28;20041;-74
2022/07/03 05:33:12;;;;;;;10.65;5.50;;;19.70;65.80;;;;;;4992194;28;20096;-74
2022/07/03 05:35:37;;;;;;;8.23;5.03;;;19.50;67.00;;;;;;5008005;28;20092;-74
2022/07/03 05:38:03;;;;;;;13.23;6.55;;;19.20;67.30;;;;;;5003236;28;20169;-75
2022/07/03 05:40:29;;;;;;;10.95;5.97;;;18.90;68.00;;;;;;5001681;28;20074;-74
2022/07/03 05:42:55;;;;;;;11.55;6.13;;;18.70;68.90;;;;;;5008651;28;20041;-75
2022/07/03 05:45:20;;;;;;;9.95;5.80;;;18.50;69.70;;;;;;5008647;28;20049;-74
2022/07/03 05:47:46;;;;;;;11.27;6.47;;;18.20;70.90;;;;;;5010186;28;20038;-74
2022/07/03 05:50:12;;;;;;;9.80;5.95;;;18.10;71.40;;;;;;5010121;28;20464;-75
2022/07/03 05:52:37;;;;;;;10.15;6.03;;;18.20;71.20;;;;;;5005224;28;20455;-74
2022/07/03 05:55:04;;;;;;;12.10;6.72;;;18.10;71.70;;;;;;5001419;28;20042;-74
2022/07/03 05:57:29;;;;;;;10.55;5.72;;;18.50;71.10;;;;;;5009463;28;20033;-74
2022/07/03 05:59:55;;;;;;;11.13;5.90;;;19.00;69.80;;;;;;5002806;28;20030;-74
2022/07/03 06:02:21;;;;;;;9.13;5.38;;;19.00;68.50;;;;;;5009836;28;20046;-75
2022/07/03 06:04:47;;;;;;;12.75;5.97;;;19.00;68.70;;;;;;5001334;28;20121;-75
2022/07/03 06:07:13;;;;;;;13.48;7.20;;;19.00;69.70;;;;;;4995316;28;20041;-75
2022/07/03 06:09:39;;;;;;;12.65;6.22;;;19.10;69.40;;;;;;5001091;28;20088;-74
2022/07/03 06:12:04;;;;;;;11.32;5.25;;;19.10;68.70;;;;;;4994552;28;20092;-75
2022/07/03 06:14:30;;;;;;;9.90;5.28;;;19.10;68.80;;;;;;4997887;28;20637;-75
2022/07/03 06:16:56;;;;;;;12.18;5.20;;;19.00;69.00;;;;;;4999532;28;20058;-75
2022/07/03 06:19:21;;;;;;;7.50;4.50;;;19.10;69.10;;;;;;4994566;28;20409;-76
2022/07/03 06:21:47;;;;;;;9.90;5.00;;;19.20;69.20;;;;;;5009246;28;20041;-75
2022/07/03 06:24:13;;;;;;;9.90;4.85;;;19.10;68.50;;;;;;4991708;28;20057;-75
2022/07/03 06:26:38;;;;;;;11.80;4.70;;;19.10;68.50;;;;;;5004221;28;20116;-75
2022/07/03 06:29:04;;;;;;;8.90;4.30;;;19.20;67.80;;;;;;4994261;28;20093;-75
2022/07/03 06:31:31;;;;;;;8.15;4.57;;;19.30;68.70;;;;;;5002156;28;20029;-76
2022/07/03 06:33:57;;;;;;;8.50;4.18;;;19.50;67.30;;;;;;5009998;28;20053;-75
2022/07/03 06:36:22;;;;;;;8.88;3.60;;;19.40;67.50;;;;;;5010597;28;20058;-75
2022/07/03 06:38:48;;;;;;;7.97;4.30;;;19.40;66.30;;;;;;5011319;28;20045;-76
2022/07/03 06:41:14;;;;;;;9.63;4.22;;;19.40;67.10;;;;;;5000864;28;20064;-76
2022/07/03 06:43:39;;;;;;;9.75;4.03;;;19.50;67.30;;;;;;5003801;28;20071;-76
2022/07/03 06:46:05;;;;;;;10.18;4.15;;;19.50;67.00;;;;;;5000944;28;20042;-76
2022/07/03 06:48:31;;;;;;;7.50;3.83;;;19.70;66.80;;;;;;5001670;28;20038;-76
2022/07/03 06:50:56;;;;;;;9.65;4.38;;;19.80;66.00;;;;;;5008462;28;20109;-76
2022/07/03 06:53:22;;;;;;;7.45;3.67;;;19.70;66.00;;;;;;4999677;28;20038;-76
2022/07/03 06:55:48;;;;;;;8.65;3.22;;;19.80;65.50;;;;;;5002626;28;20041;-76
2022/07/03 06:58:14;;;;;;;7.60;3.38;;;19.80;66.10;;;;;;5008858;28;20103;-76
2022/07/03 07:00:40;;;;;;;8.18;3.22;;;20.10;65.00;;;;;;4999245;28;20188;-76
2022/07/03 07:03:05;;;;;;;8.45;3.30;;;20.30;64.40;;;;;;4997567;28;20050;-76
2022/07/03 07:05:31;;;;;;;6.50;3.42;;;20.50;64.30;;;;;;5009726;28;20042;-76
2022/07/03 07:07:57;;;;;;;5.57;2.80;;;20.70;63.60;;;;;;5007490;28;20448;-76
2022/07/03 07:10:22;;;;;;;7.63;3.05;;;20.80;63.10;;;;;;4992938;28;20034;-76
2022/07/03 07:12:49;;;;;;;9.40;3.60;;;20.60;63.20;;;;;;5003183;28;20034;-76
2022/07/03 07:15:15;;;;;;;11.23;3.47;;;20.50;64.40;;;;;;5006306;28;20421;-76
2022/07/03 07:17:40;;;;;;;7.75;2.90;;;20.30;64.40;;;;;;5001942;28;20036;-75
2022/07/03 07:20:06;;;;;;;10.05;3.85;;;20.30;64.40;;;;;;5010171;28;20038;-77
2022/07/03 07:22:32;;;;;;;10.20;3.72;;;20.00;65.50;;;;;;4990301;28;20030;-74
2022/07/03 07:24:58;;;;;;;6.97;3.20;;;20.20;65.00;;;;;;5004640;28;20409;-77
2022/07/03 07:27:23;;;;;;;10.30;3.00;;;20.50;64.60;;;;;;5007957;28;20468;-75
2022/07/03 07:29:49;;;;;;;6.05;2.67;;;20.80;64.20;;;;;;5006158;28;20030;-75
2022/07/03 07:32:15;;;;;;;6.85;2.53;;;21.00;62.60;;;;;;4993891;28;20049;-76
2022/07/03 07:34:40;;;;;;;5.95;2.00;;;21.10;61.90;;;;;;5009715;28;20030;-76
2022/07/03 07:37:06;;;;;;;8.23;2.58;;;21.40;61.10;;;;;;5009134;28;20037;-76
2022/07/03 07:39:32;;;;;;;5.05;1.90;;;21.70;61.00;;;;;;5009115;28;20038;-76
2022/07/03 07:41:57;;;;;;;7.18;2.45;;;21.70;60.50;;;;;;5003181;28;20037;-76
2022/07/03 07:44:23;;;;;;;7.38;2.63;;;21.60;59.50;;;;;;5000025;28;20522;-76
2022/07/03 07:46:49;;;;;;;5.90;2.40;;;21.20;60.20;;;;;;4991259;28;20047;-76
2022/07/03 07:49:15;;;;;;;5.85;2.60;;;20.80;62.30;;;;;;5006866;28;20033;-74
2022/07/03 07:51:41;;;;;;;6.50;2.58;;;20.80;63.00;;;;;;5000440;28;20053;-76
2022/07/03 07:54:07;;;;;;;7.63;2.92;;;21.10;61.90;;;;;;5002229;28;20053;-75
2022/07/03 07:56:32;;;;;;;8.13;2.67;;;21.20;60.70;;;;;;5004904;28;20526;-75
2022/07/03 07:58:58;;;;;;;6.70;2.60;;;21.10;60.70;;;;;;5003944;28;20034;-74
2022/07/03 08:07:06;;;;;;;9.52;2.80;;;21.00;60.60;;;;;;4971643;28;20449;-77
2022/07/03 08:09:31;;;;;;;9.13;3.35;;;21.40;59.40;;;;;;5002904;28;20121;-77
2022/07/03 08:11:57;;;;;;;7.80;3.40;;;21.70;59.20;;;;;;5007016;28;20034;-75
2022/07/03 08:14:23;;;;;;;8.40;3.72;;;21.90;58.50;;;;;;5009072;28;20125;-76
2022/07/03 08:16:49;;;;;;;7.90;3.83;;;22.00;57.90;;;;;;5008252;28;20112;-76
2022/07/03 08:19:15;;;;;;;10.77;3.95;;;21.70;58.40;;;;;;5016818;28;20069;-76
2022/07/03 08:21:41;;;;;;;8.50;3.75;;;21.70;60.10;;;;;;5011510;28;20470;-76
2022/07/03 08:24:07;;;;;;;7.70;3.53;;;22.00;58.50;;;;;;5001730;28;20038;-75
2022/07/03 08:26:32;;;;;;;7.22;3.00;;;21.60;58.20;;;;;;5004251;28;20045;-75
2022/07/03 08:28:58;;;;;;;8.20;2.80;;;21.70;57.90;;;;;;5002710;28;20038;-75
2022/07/03 08:31:24;;;;;;;5.88;3.00;;;21.00;58.90;;;;;;5002240;28;20042;-76
2022/07/03 08:33:49;;;;;;;9.43;3.78;;;21.10;58.30;;;;;;5014156;28;20116;-76
2022/07/03 08:36:15;;;;;;;7.40;3.47;;;21.20;58.70;;;;;;4997978;28;20521;-76
2022/07/03 08:38:41;;;;;;;8.57;2.78;;;21.50;58.00;;;;;;5011550;28;20034;-76
2022/07/03 08:41:07;;;;;;;7.70;3.03;;;21.70;58.70;;;;;;5007629;28;20084;-76
2022/07/03 08:43:36;;;;;;;7.40;3.00;;;22.20;56.90;;;;;;5020801;28;20053;-76
2022/07/03 08:46:03;;;;;;;9.05;4.07;;;22.60;56.60;;;;;;5016165;28;20093;-76
2022/07/03 08:48:33;;;;;;;7.30;2.65;;;22.70;55.70;;;;;;5009265;28;20026;-76
2022/07/03 08:51:01;;;;;;;6.22;2.58;;;23.10;53.80;;;;;;5000469;28;20470;-76
2022/07/03 08:53:27;;;;;;;6.03;1.88;;;22.40;54.70;;;;;;5009560;28;20053;-76
2022/07/03 08:55:52;;;;;;;6.43;2.00;;;21.70;56.00;;;;;;5008849;28;20398;-76
2022/07/03 08:58:21;;;;;;;3.38;1.63;;;21.80;55.20;;;;;;5002905;28;20026;-75
2022/07/03 09:00:47;;;;;;;4.78;1.80;;;21.60;56.40;;;;;;5010822;28;20506;-75
2022/07/03 09:03:14;;;;;;;6.38;2.17;;;22.00;56.30;;;;;;5001382;28;20034;-75
2022/07/03 09:05:40;;;;;;;6.47;2.20;;;22.50;55.20;;;;;;4993519;28;20045;-76
2022/07/03 09:08:07;;;;;;;9.88;1.92;;;22.60;54.80;;;;;;5000485;28;20065;-76
2022/07/03 09:10:33;;;;;;;5.53;1.77;;;22.80;54.50;;;;;;5006217;28;20120;-75
2022/07/03 09:12:59;;;;;;;4.72;1.25;;;23.00;53.30;;;;;;5001476;28;20037;-76
2022/07/03 09:15:25;;;;;;;6.18;1.77;;;22.80;52.10;;;;;;5000451;28;20050;-77
2022/07/03 09:18:05;;;;;;;3.83;1.60;;;22.60;53.10;;;;;;5001687;28;20030;-76
2022/07/03 09:20:37;;;;;;;5.20;1.80;;;22.60;54.60;;;;;;5005219;28;20035;-76
2022/07/03 09:23:20;;;;;;;7.18;2.13;;;22.80;54.80;;;;;;5008932;28;20044;-76
2022/07/03 09:25:54;;;;;;;4.45;1.73;;;22.70;54.00;;;;;;5003956;28;20034;-75
2022/07/03 09:28:40;;;;;;;3.95;1.70;;;22.30;54.20;;;;;;5000811;28;20030;-76
2022/07/03 09:31:06;;;;;;;6.20;1.52;;;22.30;52.60;;;;;;5008854;28;20489;-76
2022/07/03 09:33:32;;;;;;;4.45;1.40;;;22.80;51.90;;;;;;5010599;28;20474;-76
2022/07/03 09:35:57;;;;;;;5.72;1.73;;;23.40;51.80;;;;;;5009794;28;20042;-76
2022/07/03 09:38:23;;;;;;;2.53;1.10;;;23.70;49.60;;;;;;5007002;28;20030;-76
2022/07/03 09:40:55;;;;;;;2.38;0.90;;;23.30;48.20;;;;;;4998975;28;20120;-75
2022/07/03 09:43:24;;;;;;;4.03;1.55;;;23.00;48.70;;;;;;5022608;28;20133;-76
2022/07/03 09:46:01;;;;;;;4.70;1.50;;;22.60;50.10;;;;;;5005862;28;20050;-76
2022/07/03 09:48:28;;;;;;;5.55;1.88;;;22.50;50.50;;;;;;4992873;28;20176;-77
2022/07/03 09:51:09;;;;;;;6.43;2.05;;;22.20;51.80;;;;;;5010515;28;20042;-75
2022/07/03 09:53:55;;;;;;;8.02;1.80;;;21.70;53.70;;;;;;5000930;28;20046;-76
2022/07/03 09:56:26;;;;;;;5.60;1.67;;;21.60;53.50;;;;;;5009944;28;20919;-76
2022/07/03 09:59:02;;;;;;;4.53;1.50;;;21.60;54.40;;;;;;5011598;28;20112;-76
2022/07/03 10:01:28;;;;;;;4.88;1.40;;;22.40;53.80;;;;;;5006324;28;20042;-76
2022/07/03 10:03:55;;;;;;;5.22;1.38;;;23.00;51.50;;;;;;4999694;28;20132;-76
2022/07/03 10:06:20;;;;;;;3.75;1.35;;;23.60;50.70;;;;;;5001300;28;20035;-76
2022/07/03 10:08:47;;;;;;;5.13;1.45;;;24.20;48.80;;;;;;5009839;28;20049;-76
2022/07/03 10:11:13;;;;;;;5.95;1.83;;;23.70;48.50;;;;;;5002339;28;20045;-76
2022/07/03 10:13:40;;;;;;;4.57;1.33;;;23.90;48.10;;;;;;5007074;28;20092;-76
2022/07/03 10:16:07;;;;;;;3.90;1.20;;;23.90;48.70;;;;;;4990684;28;20053;-76
2022/07/03 10:18:39;;;;;;;3.85;1.40;;;23.50;47.70;;;;;;5002508;28;20034;-76
2022/07/03 10:21:09;;;;;;;5.55;1.48;;;22.90;49.30;;;;;;4998858;28;20394;-76
2022/07/03 10:23:35;;;;;;;3.13;1.10;;;23.30;49.80;;;;;;5006234;28;20134;-76
2022/07/03 10:26:01;;;;;;;3.83;1.30;;;23.00;47.90;;;;;;5006389;28;20120;-76
2022/07/03 10:28:27;;;;;;;4.72;1.45;;;23.00;49.20;;;;;;4999333;28;20038;-77
2022/07/03 10:30:54;;;;;;;3.45;1.13;;;23.00;47.30;;;;;;5001101;28;20489;-76
2022/07/03 10:33:20;;;;;;;5.18;1.35;;;23.30;47.00;;;;;;5006383;28;20041;-76
2022/07/03 10:35:50;;;;;;;4.18;1.48;;;23.80;45.70;;;;;;5002484;28;20121;-75
2022/07/03 10:38:34;;;;;;;2.83;1.00;;;23.80;45.70;;;;;;5006004;28;21108;-75
2022/07/03 10:46:36;;;;;;;2.80;0.90;;;24.10;44.50;;;;;;4995541;28;20048;-74
2022/07/03 10:49:08;;;;;;;2.97;1.02;;;24.10;43.60;;;;;;5000342;28;20413;-76
2022/07/03 10:51:56;;;;;;;3.35;1.05;;;24.10;43.40;;;;;;5009501;28;20046;-76
2022/07/03 10:54:26;;;;;;;2.70;0.95;;;24.40;44.00;;;;;;5007854;28;20482;-74
2022/07/03 10:56:57;;;;;;;3.78;1.00;;;24.60;43.20;;;;;;5007264;28;20084;-77
2022/07/03 10:59:46;;;;;;;2.85;1.20;;;25.10;42.30;;;;;;4992623;28;20038;-75
2022/07/03 11:02:34;;;;;;;3.60;1.20;;;26.00;42.30;;;;;;5008685;28;20048;-76
2022/07/03 11:05:03;;;;;;;5.32;1.10;;;25.60;41.10;;;;;;5003766;28;20562;-76
2022/07/03 11:07:55;;;;;;;1.80;0.80;;;25.20;42.90;;;;;;5004010;28;20038;-76
2022/07/03 11:10:24;;;;;;;3.78;1.10;;;24.50;43.60;;;;;;4988939;28;20847;-76
2022/07/03 11:13:09;;;;;;;3.13;1.13;;;23.90;44.80;;;;;;4991132;28;20046;-76
2022/07/03 11:15:45;;;;;;;3.50;1.00;;;23.40;46.10;;;;;;5004754;28;20053;-76
2022/07/03 11:18:34;;;;;;;3.33;1.00;;;23.90;46.40;;;;;;4994748;28;20034;-76
2022/07/03 11:21:15;;;;;;;4.25;1.40;;;24.20;44.30;;;;;;4994686;28;20041;-76
2022/07/03 11:24:01;;;;;;;3.88;1.05;;;24.10;44.90;;;;;;5000318;28;20383;-76
2022/07/03 11:26:27;;;;;;;3.92;1.25;;;23.70;45.20;;;;;;4981415;28;20042;-76
2022/07/03 11:28:54;;;;;;;4.15;1.08;;;23.80;44.90;;;;;;5005842;28;20095;-76
2022/07/03 11:31:22;;;;;;;3.17;1.00;;;23.00;45.80;;;;;;4994604;28;20061;-76
2022/07/03 11:33:51;;;;;;;2.97;1.10;;;22.80;46.10;;;;;;4995862;28;20034;-76
2022/07/03 11:36:17;;;;;;;2.38;0.90;;;22.60;47.80;;;;;;5004823;28;20038;-76
2022/07/03 11:39:00;;;;;;;2.85;1.20;;;23.00;46.30;;;;;;5000284;28;20045;-76
2022/07/03 11:41:28;;;;;;;3.03;1.10;;;23.20;45.70;;;;;;5001108;28;20042;-76
2022/07/03 11:43:56;;;;;;;5.38;1.40;;;23.10;44.60;;;;;;5009543;28;20038;-76
2022/07/03 11:46:24;;;;;;;4.28;1.10;;;23.10;45.30;;;;;;5008389;28;20049;-75
2022/07/03 11:49:04;;;;;;;3.10;1.20;;;23.40;43.80;;;;;;5013061;28;20049;-76
2022/07/03 11:51:29;;;;;;;3.35;1.05;;;23.30;43.80;;;;;;5001825;28;20030;-76
2022/07/03 11:53:55;;;;;;;3.50;1.13;;;23.50;44.50;;;;;;5004308;28;20061;-76
2022/07/03 11:56:21;;;;;;;3.05;1.10;;;23.10;45.30;;;;;;5008437;28;20072;-76
2022/07/03 11:58:49;;;;;;;2.60;1.00;;;23.20;44.80;;;;;;5005394;28;20053;-76
2022/07/03 12:01:27;;;;;;;4.05;1.35;;;23.40;46.00;;;;;;5009941;28;20084;-76
2022/07/03 12:04:16;;;;;;;3.42;0.90;;;23.70;45.10;;;;;;5003095;28;20121;-76
2022/07/03 12:06:52;;;;;;;2.70;1.30;;;23.50;45.10;;;;;;4998708;28;20375;-75
2022/07/03 12:09:33;;;;;;;3.55;0.98;;;23.80;44.20;;;;;;5014584;28;20034;-76
2022/07/03 12:12:00;;;;;;;3.00;0.88;;;24.10;43.40;;;;;;5009531;28;20359;-76
2022/07/03 12:14:39;;;;;;;4.35;0.90;;;24.00;43.90;;;;;;5007012;28;20042;-76
2022/07/03 12:17:06;;;;;;;2.40;0.90;;;23.90;44.40;;;;;;5004576;28;20112;-76
2022/07/03 12:19:31;;;;;;;4.03;0.80;;;24.00;43.90;;;;;;5004160;28;20045;-76
2022/07/03 12:21:57;;;;;;;4.22;1.13;;;24.50;44.10;;;;;;4993947;28;20042;-76
2022/07/03 12:24:23;;;;;;;2.13;0.80;;;24.60;43.10;;;;;;4997636;28;20114;-76
2022/07/03 12:26:49;;;;;;;1.52;0.73;;;24.60;42.40;;;;;;5006807;28;20073;-76
2022/07/03 12:29:16;;;;;;;3.78;1.10;;;24.00;42.30;;;;;;5004934;28;20041;-76
2022/07/03 12:31:44;;;;;;;3.90;1.13;;;23.80;41.10;;;;;;5004852;28;20036;-74
2022/07/03 12:34:15;;;;;;;2.92;0.90;;;24.00;41.80;;;;;;5000907;28;20685;-75
2022/07/03 12:36:53;;;;;;;3.17;1.00;;;24.10;42.50;;;;;;5008121;28;20035;-75
2022/07/03 12:39:19;;;;;;;2.40;0.90;;;24.10;42.30;;;;;;5012570;28;20482;-76
2022/07/03 12:41:45;;;;;;;3.63;1.15;;;24.50;42.10;;;;;;5004217;28;20042;-76
2022/07/03 12:44:10;;;;;;;4.65;0.80;;;24.50;42.00;;;;;;4993590;28;20390;-77
2022/07/03 12:46:36;;;;;;;1.90;0.98;;;24.60;41.90;;;;;;4999660;28;20070;-76
2022/07/03 12:49:12;;;;;;;5.10;1.17;;;25.10;40.50;;;;;;5000696;28;20034;-76
2022/07/03 12:51:46;;;;;;;2.47;1.00;;;25.30;40.90;;;;;;5012069;28;20040;-76
2022/07/03 12:54:38;;;;;;;3.67;0.90;;;25.30;39.30;;;;;;4993272;28;20035;-76
2022/07/03 13:00:10;;;;;;;2.67;0.90;;;24.10;42.00;;;;;;5012368;28;20076;-76
2022/07/03 13:02:37;;;;;;;3.10;1.00;;;23.60;42.30;;;;;;5015406;28;20070;-76
2022/07/03 13:05:14;;;;;;;4.47;1.20;;;23.30;42.70;;;;;;5003031;28;20039;-76
2022/07/03 13:07:40;;;;;;;3.05;1.20;;;23.50;44.10;;;;;;5001361;28;20115;-76
2022/07/03 13:10:07;;;;;;;4.82;1.10;;;23.70;43.10;;;;;;5004413;28;20108;-76
2022/07/03 13:12:33;;;;;;;5.53;1.13;;;24.10;42.10;;;;;;4994091;28;20051;-76